Aeroporto :
LOGIN :

Iscrizione | Disclaimer

   EN    FR    IT 

 










Sommario :    VFR   VFR Marginale   IFR   IFR Intensivo   IFR Molto Intensivo
Visibilità : 
Base nubi : 
>= 8 km
>= 3000ft
5 / 8 km
1000 / 3000 ft
1500m / 5 km
500 / 1000 ft
800 / 1500m
200 / 500 ft
< 800m
< 200 ft
Simboli :   Temporali  Nebbia  Neve Forte  Precipitazioni Forti  Vento > 20 kt
SIGMETs :   Varie  Temporali  Ghiacco  Turbolenza  Onda orograficha  Ceneri Vulcaniche






- Altitudine del aeroporto : -11 ft
- Codice IATA : AMS


EHAM - Amsterdam Schiphol

ULTIMO METAR :
  • 141355Z 23011KT 9999 -RA FEW023 SCT035 BKN042 07/03 Q0988 TEMPO 23018G30KT 3000 SHRA SCT020CB

METARs OBSOLETI :
  • 141325Z 22016KT 9999 -RA FEW025 SCT033 BKN042 08/04 Q0988 TEMPO 5000 RA
  • 141255Z 24016KT 210V280 9999 FEW031 08/03 Q0988 NOSIG
  • 141225Z 26019KT 9999 FEW028 SCT043 08/02 Q0988 NOSIG
  • 141155Z 25020G30KT 9999 FEW028 SCT035 08/02 Q0988 NOSIG
  • 141125Z 26022G32KT 9999 FEW028 SCT035 08/01 Q0988 NOSIG

TAF TAF EHAM
Valido dal 14 a 12 ore il 15 a 18 ore UTC


141121Z 1412/1518 25022G33KT 9999 SCT025
TEMPO 1412/1417 7000 -SHRA -RA FEW020CB
PROB40
TEMPO 1414/1417 26025G38KT 4500 SHRAGS RA SCT020CB BKN025
BECMG 1418/1421 21015KT
BECMG 1502/1505 25023G34KT
TEMPO 1502/1505 26026G39KT 6000 SHRA RA SCT012 BKN018 SCT020CB
BECMG 1508/1511 22017G27KT
PROB30
TEMPO 1513/1518 23022G32KT 5000 SHRA TSRA SCT015 SCT020CB



MetMap, La meteo Aeronautica in un colpo d'occhio ! - Copyright ORBIFLY Dicembre 2007 - Disclaimer

ORBIFLY MET'MAP TEAM :

Programmazione e sviluppo : Alexandra Zaïnal
Concezione : Baudouin d'Aumeries
Aiuto per la programmazione : Marc-Olivier Méhu
Supporto tecnico e logistico : Manuel Goepfert
Aiuto per la traduzione : Arnaldo La Scala

Contatto : metmap@orbifly.com




FONTI E CREDITI :

   NOAA